Frederick, Illinois
Current Conditions -  °F | °C
As of 2:35 PM on Sunday 21 Dec 2014 (Local Time) from KIJX Reporting Station
Overcast Overcast  
Wind Chill: 34°   Ceiling: 3400
Heat Index: 42°   Visibility: 10mi
Dew Point: 34°   Wind: 14mph
Humidity: 75%   Direction: 160°SSE
Pressure: 30.03"   Gusts: 18mph
Location:  40.07°N, 90.43°W
Report Text: KIJX 212035Z AUTO 16012G16KT 10SM SCT017 OVC034 05/01 A3003 RMK AO2 T00530011
Loading
Personal Weather Stations






























Interactive Weather Map New forecast layout! Learn more

10-Day Weather Forecast

Advertisements
Track Severe Weather on mobile